Midoey Viking — LGUP — position and weather

sailwx.info

Track history (hours):
 
Tides and Currents Weather Stations Pressure Air Temp Water Temp Dewpoint Dewpoint Depression Visibility Wind Speed Wind Dir Waves Ship Positions

Midoey Viking

Last reported at 2018-May-27 00:53 UTC. Time now 2018-May-27 19:26 UTC.
Position N 62°27' E 005°60'.

Length 33 m; draft 5.5 m.

Type: Fishing. MMSI: 257465500.

Date/timePositionNaut miles runAvg speedWind from/ knotsBaromVisibWave heightAir tempDewpointWater temp
2018-May-27 00:53N 62°27' E 005°60'3 8.5
2018-May-27 00:30N 62°29' E 006°06'4 8.0
2018-May-27 00:01N 62°32' E 006°10'9 8.7
2018-May-26 22:55N 62°39' E 006°24'4 8.7
2018-May-26 22:30N 62°42' E 006°28'5 8.7
2018-May-26 21:58N 62°46' E 006°33'4 8.7
2018-May-26 21:30N 62°50' E 006°38'11 8.4
2018-May-26 20:12N 62°59' E 006°49'2 8.2
2018-May-26 19:55N 63°01' E 006°52'5 8.3
2018-May-26 19:17N 63°06' E 006°57'2 8.2
2018-May-26 19:00N 63°08' E 007°00'4 8.4
2018-May-26 18:29N 63°12' E 007°05'4 8.3
2018-May-26 18:00N 63°15' E 007°10'4 8.4
2018-May-26 17:30N 63°18' E 007°16'4 8.0
2018-May-26 17:00N 63°22' E 007°20'4 7.9
2018-May-26 16:30N 63°25' E 007°26'4 7.8
2018-May-26 15:59N 63°28' E 007°31'4 7.9
2018-May-26 15:30N 63°31' E 007°37'19 1.6
2018-May-26 03:53N 63°17' E 007°07'48 8.3
2018-May-25 22:04N 62°35' E 006°15'1 7.7
2018-May-25 21:55N 62°34' E 006°13'3 8.3
2018-May-25 21:30N 62°31' E 006°09'11 0.4
2018-May-24 17:19N 62°24' E 005°50'3 8.6
2018-May-24 17:00N 62°26' E 005°55'4 8.5
2018-May-24 16:30N 62°28' E 006°03'4 8.0
2018-May-24 16:00N 62°31' E 006°09'4 8.5
2018-May-24 15:30N 62°35' E 006°13'6 8.0
2018-May-24 14:46N 62°38' E 006°24'8 6.1
2018-May-24 13:25N 62°42' E 006°39'37 8.5
2018-May-24 09:00N 63°17' E 007°10'0 0.8
2018-May-24 08:30N 63°17' E 007°09'0 0.7
2018-May-24 07:57N 63°17' E 007°08'0 0.6
2018-May-24 07:28N 63°17' E 007°07'1 2.2
2018-May-24 06:58N 63°17' E 007°10'0 1.1
2018-May-24 06:30N 63°17' E 007°09'0 0.7
2018-May-24 06:00N 63°17' E 007°08'0 0.5
2018-May-24 05:26N 63°17' E 007°07'0 0.5
2018-May-24 04:57N 63°17' E 007°08'1 1.3
2018-May-24 04:30N 63°17' E 007°09'1 1.5
2018-May-24 04:00N 63°17' E 007°08'0 0.5
2018-May-24 03:30N 63°17' E 007°08'3 5.5
2018-May-24 03:01N 63°17' E 007°14'0 0.9
2018-May-24 02:31N 63°17' E 007°13'0 0.9
2018-May-24 02:00N 63°17' E 007°12'0 0.8
2018-May-24 01:30N 63°17' E 007°11'0 0.8
2018-May-24 01:00N 63°17' E 007°10'0 0.7
2018-May-24 00:30N 63°17' E 007°09'0 0.5
2018-May-24 00:00N 63°17' E 007°09'0 0.4
2018-May-23 23:30N 63°17' E 007°09'0 0.3
2018-May-23 23:00N 63°17' E 007°08'0 0.0
2018-May-23 22:30N 63°17' E 007°08'0 0.7
2018-May-23 22:00N 63°17' E 007°07'0 0.9
2018-May-23 21:30N 63°17' E 007°08'1 1.0
2018-May-23 21:00N 63°16' E 007°09'0 0.2
2018-May-23 20:30N 63°17' E 007°09'0 0.2
2018-May-23 20:00N 63°17' E 007°09'0 0.5
2018-May-23 19:30N 63°17' E 007°09'0 0.5
2018-May-23 19:00N 63°17' E 007°08'0 1.0
2018-May-23 18:30N 63°17' E 007°07'1 1.6
2018-May-23 17:59N 63°16' E 007°08'0 0.5
2018-May-23 17:31N 63°17' E 007°08'0 0.5
2018-May-23 16:58N 63°17' E 007°08'0 0.8
2018-May-23 16:30N 63°17' E 007°08'1 1.0
2018-May-23 15:55N 63°16' E 007°08'1 2.7
2018-May-23 15:30N 63°17' E 007°09'3 5.4
2018-May-23 15:00N 63°17' E 007°15'1 1.6
2018-May-23 14:16N 63°16' E 007°16'1 4.8
2018-May-23 13:58N 63°16' E 007°13'2 4.6
2018-May-23 13:28N 63°17' E 007°08'1 1.4
2018-May-23 13:00N 63°17' E 007°07'4 7.1
2018-May-23 12:29N 63°13' E 007°04'31 7.7
2018-May-23 08:31N 62°45' E 006°37'0 7.2
2018-May-23 08:30N 62°45' E 006°37'  
Track history (hours):
 
Tides and Currents Weather Stations Pressure Air Temp Water Temp Dewpoint Dewpoint Depression Visibility Wind Speed Wind Dir Waves Ship Positions

Midoey Viking

Last reported at 2018-May-27 00:53 UTC. Time now 2018-May-27 19:26 UTC.
Position N 62°27' E 005°60'.

Length 33 m; draft 5.5 m.

Type: Fishing. MMSI: 257465500.

Date/timePositionNaut miles runAvg speedWind from/ knotsBaromVisibWave heightAir tempDewpointWater temp
2018-May-27 00:53N 62°27' E 005°60'3 8.5
2018-May-27 00:30N 62°29' E 006°06'4 8.0
2018-May-27 00:01N 62°32' E 006°10'9 8.7
2018-May-26 22:55N 62°39' E 006°24'4 8.7
2018-May-26 22:30N 62°42' E 006°28'5 8.7
2018-May-26 21:58N 62°46' E 006°33'4 8.7
2018-May-26 21:30N 62°50' E 006°38'11 8.4
2018-May-26 20:12N 62°59' E 006°49'2 8.2
2018-May-26 19:55N 63°01' E 006°52'5 8.3
2018-May-26 19:17N 63°06' E 006°57'2 8.2
2018-May-26 19:00N 63°08' E 007°00'4 8.4
2018-May-26 18:29N 63°12' E 007°05'4 8.3
2018-May-26 18:00N 63°15' E 007°10'4 8.4
2018-May-26 17:30N 63°18' E 007°16'4 8.0
2018-May-26 17:00N 63°22' E 007°20'4 7.9
2018-May-26 16:30N 63°25' E 007°26'4 7.8
2018-May-26 15:59N 63°28' E 007°31'4 7.9
2018-May-26 15:30N 63°31' E 007°37'19 1.6
2018-May-26 03:53N 63°17' E 007°07'48 8.3
2018-May-25 22:04N 62°35' E 006°15'1 7.7
2018-May-25 21:55N 62°34' E 006°13'3 8.3
2018-May-25 21:30N 62°31' E 006°09'11 0.4
2018-May-24 17:19N 62°24' E 005°50'3 8.6
2018-May-24 17:00N 62°26' E 005°55'4 8.5
2018-May-24 16:30N 62°28' E 006°03'4 8.0
2018-May-24 16:00N 62°31' E 006°09'4 8.5
2018-May-24 15:30N 62°35' E 006°13'6 8.0
2018-May-24 14:46N 62°38' E 006°24'8 6.1
2018-May-24 13:25N 62°42' E 006°39'37 8.5
2018-May-24 09:00N 63°17' E 007°10'0 0.8
2018-May-24 08:30N 63°17' E 007°09'0 0.7
2018-May-24 07:57N 63°17' E 007°08'0 0.6
2018-May-24 07:28N 63°17' E 007°07'1 2.2
2018-May-24 06:58N 63°17' E 007°10'0 1.1
2018-May-24 06:30N 63°17' E 007°09'0 0.7
2018-May-24 06:00N 63°17' E 007°08'0 0.5
2018-May-24 05:26N 63°17' E 007°07'0 0.5
2018-May-24 04:57N 63°17' E 007°08'1 1.3
2018-May-24 04:30N 63°17' E 007°09'1 1.5
2018-May-24 04:00N 63°17' E 007°08'0 0.5
2018-May-24 03:30N 63°17' E 007°08'3 5.5
2018-May-24 03:01N 63°17' E 007°14'0 0.9
2018-May-24 02:31N 63°17' E 007°13'0 0.9
2018-May-24 02:00N 63°17' E 007°12'0 0.8
2018-May-24 01:30N 63°17' E 007°11'0 0.8
2018-May-24 01:00N 63°17' E 007°10'0 0.7
2018-May-24 00:30N 63°17' E 007°09'0 0.5
2018-May-24 00:00N 63°17' E 007°09'0 0.4
2018-May-23 23:30N 63°17' E 007°09'0 0.3
2018-May-23 23:00N 63°17' E 007°08'0 0.0
2018-May-23 22:30N 63°17' E 007°08'0 0.7
2018-May-23 22:00N 63°17' E 007°07'0 0.9
2018-May-23 21:30N 63°17' E 007°08'1 1.0
2018-May-23 21:00N 63°16' E 007°09'0 0.2
2018-May-23 20:30N 63°17' E 007°09'0 0.2
2018-May-23 20:00N 63°17' E 007°09'0 0.5
2018-May-23 19:30N 63°17' E 007°09'0 0.5
2018-May-23 19:00N 63°17' E 007°08'0 1.0
2018-May-23 18:30N 63°17' E 007°07'1 1.6
2018-May-23 17:59N 63°16' E 007°08'0 0.5
2018-May-23 17:31N 63°17' E 007°08'0 0.5
2018-May-23 16:58N 63°17' E 007°08'0 0.8
2018-May-23 16:30N 63°17' E 007°08'1 1.0
2018-May-23 15:55N 63°16' E 007°08'1 2.7
2018-May-23 15:30N 63°17' E 007°09'3 5.4
2018-May-23 15:00N 63°17' E 007°15'1 1.6
2018-May-23 14:16N 63°16' E 007°16'1 4.8
2018-May-23 13:58N 63°16' E 007°13'2 4.6
2018-May-23 13:28N 63°17' E 007°08'1 1.4
2018-May-23 13:00N 63°17' E 007°07'4 7.1
2018-May-23 12:29N 63°13' E 007°04'31 7.7
2018-May-23 08:31N 62°45' E 006°37'0 7.2
2018-May-23 08:30N 62°45' E 006°37'  

Dump ship's entire track history